createdAt,value
2022-08-24T00:00:37.203Z,22.80
2022-08-24T00:03:04.165Z,22.90
2022-08-24T00:05:33.585Z,22.80
2022-08-24T00:08:00.321Z,22.90
2022-08-24T00:10:29.409Z,22.90
2022-08-24T00:12:56.161Z,22.80
2022-08-24T00:15:22.947Z,22.80
2022-08-24T00:17:54.233Z,22.80
2022-08-24T00:20:23.515Z,22.80
2022-08-24T00:22:50.437Z,22.80
2022-08-24T00:25:20.505Z,22.80
2022-08-24T00:27:49.810Z,22.80
2022-08-24T00:30:17.963Z,22.80
2022-08-24T00:32:45.490Z,22.80
2022-08-24T00:35:12.544Z,22.70
2022-08-24T00:37:39.606Z,22.70
2022-08-24T00:40:12.628Z,22.70
2022-08-24T00:42:39.757Z,22.70
2022-08-24T00:45:11.356Z,22.70
2022-08-24T00:47:55.101Z,22.70
2022-08-24T00:50:54.252Z,22.70
2022-08-24T00:53:40.702Z,22.70
2022-08-24T00:56:17.133Z,22.70
2022-08-24T00:58:56.047Z,22.60
2022-08-24T01:01:24.094Z,22.60
2022-08-24T01:03:56.797Z,22.60
2022-08-24T01:06:24.382Z,22.60
2022-08-24T01:08:56.851Z,22.50
2022-08-24T01:11:24.748Z,22.40
2022-08-24T01:13:56.065Z,22.40
2022-08-24T01:16:41.419Z,22.40
2022-08-24T01:19:17.780Z,22.40
2022-08-24T01:21:50.381Z,22.40
2022-08-24T01:24:22.092Z,22.40
2022-08-24T01:26:49.834Z,22.30
2022-08-24T01:29:19.034Z,22.40
2022-08-24T01:31:53.792Z,22.40
2022-08-24T01:34:21.431Z,22.40
2022-08-24T01:36:56.245Z,22.40
2022-08-24T01:39:29.470Z,22.40
2022-08-24T01:41:58.962Z,22.40
2022-08-24T01:44:27.281Z,22.30
2022-08-24T01:46:59.704Z,22.30
2022-08-24T01:49:29.086Z,22.30
2022-08-24T01:51:58.155Z,22.30
2022-08-24T01:54:27.303Z,22.20
2022-08-24T01:56:54.100Z,22.20
2022-08-24T01:59:21.004Z,22.20
2022-08-24T02:01:52.515Z,22.20
2022-08-24T02:04:22.385Z,22.20
2022-08-24T02:06:49.509Z,22.20
2022-08-24T02:09:16.869Z,22.20
2022-08-24T02:11:46.134Z,22.10
2022-08-24T02:14:15.416Z,22.10
2022-08-24T02:16:42.505Z,22.10
2022-08-24T02:19:11.701Z,22.00
2022-08-24T02:21:38.464Z,22.00
2022-08-24T02:24:07.953Z,21.90
2022-08-24T02:26:34.739Z,21.80
2022-08-24T02:29:04.074Z,21.80
2022-08-24T02:31:33.114Z,21.80
2022-08-24T02:34:02.142Z,21.80
2022-08-24T02:36:29.231Z,21.80
2022-08-24T02:38:58.524Z,21.80
2022-08-24T02:41:25.765Z,21.80
2022-08-24T02:43:53.468Z,21.70
2022-08-24T02:46:24.380Z,21.80
2022-08-24T02:49:03.150Z,21.70
2022-08-24T02:51:40.526Z,21.50
2022-08-24T02:54:18.259Z,21.50
2022-08-24T02:56:48.336Z,21.50
2022-08-24T02:59:16.268Z,21.60
2022-08-24T03:01:49.989Z,21.60
2022-08-24T03:04:17.471Z,21.60
2022-08-24T03:06:44.772Z,21.70
2022-08-24T03:09:11.716Z,21.70
2022-08-24T03:11:44.286Z,21.70
2022-08-24T03:14:13.045Z,21.70
2022-08-24T03:16:42.421Z,21.70
2022-08-24T03:19:09.168Z,21.70
2022-08-24T03:21:38.110Z,21.70
2022-08-24T03:24:05.088Z,21.70
2022-08-24T03:26:34.057Z,21.70
2022-08-24T03:29:03.205Z,21.70
2022-08-24T03:31:29.945Z,21.60
2022-08-24T03:33:58.465Z,21.60
2022-08-24T03:36:27.700Z,21.50
2022-08-24T03:38:54.505Z,21.50
2022-08-24T03:41:21.259Z,21.50
2022-08-24T03:43:50.249Z,21.50
2022-08-24T03:46:22.252Z,21.50
2022-08-24T03:48:52.350Z,21.50
2022-08-24T03:51:23.523Z,21.50
2022-08-24T03:53:51.532Z,21.50
2022-08-24T03:56:20.363Z,21.50
2022-08-24T03:58:47.341Z,21.50
2022-08-24T04:01:14.149Z,21.50
2022-08-24T04:03:44.259Z,21.40
2022-08-24T04:06:11.908Z,21.40
2022-08-24T04:08:39.500Z,21.40
2022-08-24T04:11:11.086Z,21.40
2022-08-24T04:13:40.717Z,21.50
2022-08-24T04:16:11.469Z,21.50
2022-08-24T04:18:40.551Z,21.50
2022-08-24T04:21:07.541Z,21.60
2022-08-24T04:23:47.168Z,21.60
2022-08-24T04:26:26.825Z,21.60
2022-08-24T04:29:08.003Z,21.70
2022-08-24T04:31:38.603Z,21.60
2022-08-24T04:34:06.429Z,21.60
2022-08-24T04:36:33.307Z,21.60
2022-08-24T04:39:00.954Z,21.60
2022-08-24T04:41:31.413Z,21.60
2022-08-24T04:43:59.461Z,21.60
2022-08-24T04:46:29.198Z,21.60
2022-08-24T04:48:58.139Z,21.60
2022-08-24T04:51:24.887Z,21.60
2022-08-24T04:53:56.245Z,21.60
2022-08-24T04:56:24.028Z,21.60
2022-08-24T04:58:51.890Z,21.60
2022-08-24T05:01:24.059Z,21.60
2022-08-24T05:03:51.617Z,21.60
2022-08-24T05:06:21.607Z,21.60
2022-08-24T05:08:48.530Z,21.60
2022-08-24T05:11:18.962Z,21.70
2022-08-24T05:13:48.168Z,21.60
2022-08-24T05:16:16.287Z,21.70
2022-08-24T05:18:43.219Z,21.70
2022-08-24T05:21:11.248Z,21.70
2022-08-24T05:23:38.297Z,21.80
2022-08-24T05:26:12.157Z,21.80
2022-08-24T05:28:39.308Z,21.90
2022-08-24T05:31:20.043Z,22.00
2022-08-24T05:33:49.347Z,22.00
2022-08-24T05:36:21.102Z,21.90
2022-08-24T05:38:48.254Z,21.80
2022-08-24T05:41:15.939Z,21.80
2022-08-24T05:43:42.909Z,21.80
2022-08-24T05:46:09.701Z,21.80
2022-08-24T05:48:41.355Z,21.80
2022-08-24T05:51:10.827Z,21.80
2022-08-24T05:53:40.510Z,21.80
2022-08-24T05:56:10.116Z,21.80
2022-08-24T05:58:39.457Z,21.80
2022-08-24T06:01:14.506Z,21.90
2022-08-24T06:03:44.219Z,21.90
2022-08-24T06:06:11.224Z,21.90
2022-08-24T06:08:41.388Z,22.00
2022-08-24T06:11:10.931Z,22.10
2022-08-24T06:13:38.095Z,22.20
2022-08-24T06:16:22.138Z,22.20
2022-08-24T06:18:51.831Z,22.30
2022-08-24T06:21:21.904Z,22.40
2022-08-24T06:23:51.392Z,22.40
2022-08-24T06:26:39.563Z,22.50
2022-08-24T06:29:06.958Z,22.50
2022-08-24T06:31:41.987Z,22.50
2022-08-24T06:34:12.472Z,22.50
2022-08-24T06:36:41.851Z,22.60
2022-08-24T06:39:14.282Z,22.60
2022-08-24T06:41:44.460Z,22.60
2022-08-24T06:44:11.286Z,22.70
2022-08-24T06:46:39.541Z,22.70
2022-08-24T06:49:06.333Z,22.70
2022-08-24T06:51:33.183Z,22.80
2022-08-24T06:54:02.714Z,22.90
2022-08-24T06:56:31.728Z,22.90
2022-08-24T06:59:00.579Z,23.00
2022-08-24T07:01:29.901Z,23.00
2022-08-24T07:03:56.686Z,23.10
2022-08-24T07:06:26.042Z,23.10
2022-08-24T07:08:52.985Z,23.20
2022-08-24T07:11:19.795Z,23.20
2022-08-24T07:13:47.476Z,23.20
2022-08-24T07:16:15.427Z,23.30
2022-08-24T07:18:49.444Z,23.30
2022-08-24T07:21:20.457Z,23.40
2022-08-24T07:23:50.993Z,23.40
2022-08-24T07:26:21.493Z,23.40
2022-08-24T07:28:53.862Z,23.40
2022-08-24T07:31:21.276Z,23.50
2022-08-24T07:33:52.833Z,23.50
2022-08-24T07:36:22.926Z,23.50
2022-08-24T07:38:52.442Z,23.60
2022-08-24T07:41:43.105Z,23.50
2022-08-24T07:44:08.408Z,23.50
2022-08-24T07:46:35.355Z,23.60
2022-08-24T07:49:11.503Z,23.60
2022-08-24T07:51:46.577Z,23.60
2022-08-24T07:54:16.385Z,23.60
2022-08-24T07:56:45.766Z,23.70
2022-08-24T07:59:13.591Z,23.70
2022-08-24T08:01:41.643Z,23.80
2022-08-24T08:04:11.079Z,23.80
2022-08-24T08:06:37.888Z,23.90
2022-08-24T08:09:07.932Z,24.00
2022-08-24T08:11:35.207Z,24.00
2022-08-24T08:14:02.056Z,23.90
2022-08-24T08:16:28.914Z,23.80
2022-08-24T08:19:11.527Z,23.80
2022-08-24T08:22:07.335Z,23.90
2022-08-24T08:24:34.195Z,24.00
2022-08-24T08:27:01.999Z,24.20
2022-08-24T08:29:29.370Z,24.30
2022-08-24T08:31:58.676Z,24.40
2022-08-24T08:34:27.773Z,24.40
2022-08-24T08:36:57.817Z,24.30
2022-08-24T08:39:27.167Z,24.30
2022-08-24T08:42:02.128Z,24.50
2022-08-24T08:44:53.057Z,24.60
2022-08-24T08:47:55.251Z,24.70
2022-08-24T08:50:52.481Z,24.80
2022-08-24T08:53:53.234Z,24.90
2022-08-24T08:56:46.018Z,25.00
2022-08-24T08:59:34.177Z,24.80
2022-08-24T09:02:03.748Z,24.80
2022-08-24T09:04:30.556Z,24.90
2022-08-24T09:07:22.974Z,24.90
2022-08-24T09:10:13.234Z,25.00
2022-08-24T09:13:13.845Z,25.00
2022-08-24T09:15:48.859Z,25.00
2022-08-24T09:18:38.317Z,25.00
2022-08-24T09:21:08.087Z,25.10
2022-08-24T09:24:00.533Z,25.20
2022-08-24T09:26:29.194Z,25.40
2022-08-24T09:29:10.929Z,25.40
2022-08-24T09:32:08.623Z,25.50
2022-08-24T09:34:57.070Z,25.60
2022-08-24T09:37:54.463Z,25.70
2022-08-24T09:40:30.130Z,25.70
2022-08-24T09:43:21.144Z,25.70
2022-08-24T09:46:25.464Z,25.80
2022-08-24T09:49:18.937Z,25.90
2022-08-24T09:52:42.858Z,26.00
2022-08-24T09:55:17.994Z,26.10
2022-08-24T09:58:15.084Z,26.20
2022-08-24T10:00:54.530Z,26.20
2022-08-24T10:03:49.022Z,26.30
2022-08-24T10:06:25.160Z,26.40
2022-08-24T10:09:10.179Z,26.50
2022-08-24T10:11:50.902Z,26.60
2022-08-24T10:14:22.982Z,26.70
2022-08-24T10:16:58.767Z,26.80
2022-08-24T10:19:41.658Z,26.80
2022-08-24T10:22:33.139Z,27.00
2022-08-24T10:25:09.077Z,27.10
2022-08-24T10:28:00.937Z,27.20
2022-08-24T10:30:46.737Z,27.40
2022-08-24T10:33:27.017Z,27.40
2022-08-24T10:36:08.770Z,27.50
2022-08-24T10:38:54.309Z,27.50
2022-08-24T10:41:48.988Z,27.50
2022-08-24T10:44:40.892Z,27.60
2022-08-24T10:47:27.015Z,27.60
2022-08-24T10:50:31.317Z,27.50
2022-08-24T10:53:23.077Z,27.50
2022-08-24T10:55:58.171Z,27.70
2022-08-24T10:58:45.352Z,27.70
2022-08-24T11:01:36.869Z,27.70
2022-08-24T11:04:27.543Z,27.60
2022-08-24T11:07:25.345Z,27.80
2022-08-24T11:10:01.093Z,27.90
2022-08-24T11:12:38.236Z,28.10
2022-08-24T11:15:26.275Z,28.30
2022-08-24T11:17:56.597Z,28.40
2022-08-24T11:20:43.219Z,28.50
2022-08-24T11:23:22.409Z,28.60
2022-08-24T11:26:08.365Z,28.70
2022-08-24T11:28:39.181Z,28.80
2022-08-24T11:31:09.247Z,28.90
2022-08-24T11:33:52.900Z,29.00
2022-08-24T11:36:23.668Z,29.10
2022-08-24T11:38:52.970Z,29.20
2022-08-24T11:41:26.153Z,29.20
2022-08-24T11:44:21.275Z,29.10
2022-08-24T11:46:59.575Z,29.10
2022-08-24T11:49:52.607Z,29.10
2022-08-24T11:52:37.987Z,29.10
2022-08-24T11:58:14.245Z,29.20
2022-08-24T12:01:04.332Z,29.10
2022-08-24T12:03:52.476Z,29.20
2022-08-24T12:06:35.274Z,29.30
2022-08-24T12:09:25.930Z,29.30
2022-08-24T12:12:16.109Z,29.30
2022-08-24T12:15:11.866Z,29.30
2022-08-24T12:18:16.371Z,29.30
2022-08-24T12:20:44.089Z,29.30
2022-08-24T12:23:35.605Z,29.30
2022-08-24T12:26:13.237Z,29.30
2022-08-24T12:28:55.719Z,29.30
2022-08-24T12:31:45.606Z,29.30
2022-08-24T12:34:25.519Z,29.40
2022-08-24T12:37:10.709Z,29.40
2022-08-24T12:40:10.681Z,29.40
2022-08-24T12:42:51.278Z,29.50
2022-08-24T12:45:20.019Z,29.60
2022-08-24T12:48:01.046Z,29.50
2022-08-24T12:50:51.407Z,29.60
2022-08-24T12:53:36.524Z,29.60
2022-08-24T12:56:15.562Z,29.60
2022-08-24T12:59:02.698Z,29.50
2022-08-24T13:01:36.192Z,29.60
2022-08-24T13:04:32.198Z,29.60
2022-08-24T13:07:19.308Z,29.70
2022-08-24T13:09:58.177Z,29.80
2022-08-24T13:12:49.671Z,29.70
2022-08-24T13:15:30.415Z,29.80
2022-08-24T13:18:10.152Z,29.90
2022-08-24T13:20:37.298Z,29.90
2022-08-24T13:23:13.365Z,29.90
2022-08-24T13:25:54.239Z,29.90
2022-08-24T13:28:24.157Z,29.90
2022-08-24T13:30:54.217Z,30.00
2022-08-24T13:33:50.667Z,30.00
2022-08-24T13:36:38.668Z,30.00
2022-08-24T13:39:08.544Z,30.00
2022-08-24T13:41:49.631Z,30.10
2022-08-24T13:44:25.524Z,30.20
2022-08-24T13:47:16.949Z,30.20
2022-08-24T13:50:02.055Z,30.30
2022-08-24T13:52:43.384Z,30.30
2022-08-24T13:55:38.435Z,30.30
2022-08-24T13:58:39.317Z,30.40
2022-08-24T14:01:30.762Z,30.40
2022-08-24T14:04:08.199Z,30.50
2022-08-24T14:06:58.234Z,30.60
2022-08-24T14:09:52.575Z,30.60
2022-08-24T14:12:34.688Z,30.70
2022-08-24T14:15:07.856Z,30.70
2022-08-24T14:17:58.073Z,30.70
2022-08-24T14:20:34.032Z,30.80
2022-08-24T14:23:32.770Z,30.80
2022-08-24T14:26:33.547Z,30.80
2022-08-24T14:29:31.386Z,30.80
2022-08-24T14:32:11.670Z,30.80
2022-08-24T14:34:45.083Z,30.70
2022-08-24T14:37:23.145Z,30.70
2022-08-24T14:40:07.054Z,30.60
2022-08-24T14:42:36.230Z,30.50
2022-08-24T14:45:10.240Z,30.40
2022-08-24T14:47:45.808Z,30.40
2022-08-24T14:50:57.037Z,30.30
2022-08-24T14:53:52.471Z,30.20
2022-08-24T14:56:56.126Z,30.20
2022-08-24T14:59:49.032Z,30.10
2022-08-24T15:02:18.724Z,30.00
2022-08-24T15:05:25.074Z,29.90
2022-08-24T15:07:57.550Z,29.90
2022-08-24T15:10:28.039Z,29.90
2022-08-24T15:13:04.127Z,29.80
2022-08-24T15:15:53.286Z,29.80
2022-08-24T15:18:36.778Z,29.80
2022-08-24T15:21:18.115Z,29.70
2022-08-24T15:23:51.765Z,29.70
2022-08-24T15:26:41.340Z,29.60
2022-08-24T15:29:18.923Z,29.60
2022-08-24T15:32:10.101Z,29.60
2022-08-24T15:34:45.459Z,29.60
2022-08-24T15:37:17.523Z,29.60
2022-08-24T15:39:44.466Z,29.50
2022-08-24T15:42:13.490Z,29.50
2022-08-24T15:44:43.738Z,29.40
2022-08-24T15:47:19.387Z,29.40
2022-08-24T15:50:10.647Z,29.40
2022-08-24T15:52:42.267Z,29.50
2022-08-24T15:55:37.911Z,29.40
2022-08-24T15:58:15.496Z,29.40
2022-08-24T16:01:00.731Z,29.40
2022-08-24T16:03:37.951Z,29.40
2022-08-24T16:06:23.080Z,29.40
2022-08-24T16:09:03.741Z,29.40
2022-08-24T16:11:40.375Z,29.40
2022-08-24T16:14:18.634Z,29.40
2022-08-24T16:16:46.437Z,29.40
2022-08-24T16:19:24.977Z,29.40
2022-08-24T16:21:58.933Z,29.30
2022-08-24T16:24:29.636Z,29.30
2022-08-24T16:27:16.733Z,29.30
2022-08-24T16:29:50.948Z,29.30
2022-08-24T16:32:32.039Z,29.20
2022-08-24T16:35:12.419Z,29.20
2022-08-24T16:37:39.888Z,29.10
2022-08-24T16:40:07.479Z,29.10
2022-08-24T16:42:34.647Z,29.10
2022-08-24T16:45:03.753Z,29.10
2022-08-24T16:47:32.697Z,29.00
2022-08-24T16:49:59.488Z,29.00
2022-08-24T16:52:26.431Z,29.00
2022-08-24T16:54:53.273Z,29.00
2022-08-24T16:57:21.101Z,28.90
2022-08-24T16:59:48.362Z,28.90
2022-08-24T17:02:15.847Z,28.90
2022-08-24T17:04:47.231Z,28.80
2022-08-24T17:07:19.287Z,28.80
2022-08-24T17:09:46.324Z,28.80
2022-08-24T17:12:15.634Z,28.70
2022-08-24T17:14:42.813Z,28.70
2022-08-24T17:17:16.005Z,28.70
2022-08-24T17:19:45.967Z,28.70
2022-08-24T17:22:16.569Z,28.60
2022-08-24T17:24:43.999Z,28.60
2022-08-24T17:27:10.841Z,28.60
2022-08-24T17:29:37.605Z,28.50
2022-08-24T17:32:05.304Z,28.50
2022-08-24T17:34:32.232Z,28.50
2022-08-24T17:37:01.675Z,28.50
2022-08-24T17:39:28.515Z,28.40
2022-08-24T17:41:56.205Z,28.40
2022-08-24T17:44:28.642Z,28.40
2022-08-24T17:47:00.698Z,28.30
2022-08-24T17:49:31.448Z,28.30
2022-08-24T17:51:58.327Z,28.30
2022-08-24T17:54:28.747Z,28.30
2022-08-24T17:57:00.235Z,28.20
2022-08-24T17:59:35.019Z,28.20
2022-08-24T18:02:12.490Z,28.20
2022-08-24T18:04:39.832Z,28.10
2022-08-24T18:07:12.051Z,28.10
2022-08-24T18:09:40.355Z,28.10
2022-08-24T18:12:07.746Z,28.10
2022-08-24T18:14:36.913Z,28.10
2022-08-24T18:17:06.153Z,28.10
2022-08-24T18:19:33.359Z,28.00
2022-08-24T18:22:01.958Z,28.00
2022-08-24T18:24:32.488Z,28.00
2022-08-24T18:27:11.023Z,28.00
2022-08-24T18:29:42.890Z,28.00
2022-08-24T18:32:12.903Z,28.00
2022-08-24T18:34:39.867Z,27.90
2022-08-24T18:37:06.633Z,27.90
2022-08-24T18:39:37.091Z,27.90
2022-08-24T18:42:04.999Z,27.90
2022-08-24T18:44:32.019Z,27.80
2022-08-24T18:46:59.512Z,27.80
2022-08-24T18:49:28.485Z,27.80
2022-08-24T18:51:57.433Z,27.80
2022-08-24T18:54:28.096Z,27.80
2022-08-24T18:56:54.844Z,27.70
2022-08-24T18:59:23.918Z,27.70
2022-08-24T19:02:12.467Z,27.60
2022-08-24T19:04:48.157Z,27.60
2022-08-24T19:07:14.975Z,27.40
2022-08-24T19:09:41.791Z,27.30
2022-08-24T19:12:08.677Z,27.20
2022-08-24T19:14:38.081Z,27.10
2022-08-24T19:17:05.716Z,27.00
2022-08-24T19:19:32.753Z,26.90
2022-08-24T19:22:02.562Z,26.80
2022-08-24T19:24:29.491Z,26.80
2022-08-24T19:27:01.899Z,26.70
2022-08-24T19:30:01.454Z,26.60
2022-08-24T19:32:23.850Z,26.50
2022-08-24T19:34:53.342Z,26.50
2022-08-24T19:37:20.638Z,26.40
2022-08-24T19:39:47.792Z,26.30
2022-08-24T19:42:15.561Z,26.20
2022-08-24T19:45:04.440Z,26.10
2022-08-24T19:47:34.414Z,26.00
2022-08-24T19:50:02.370Z,25.90
2022-08-24T19:52:31.671Z,25.90
2022-08-24T19:55:03.656Z,25.80
2022-08-24T19:57:33.412Z,25.70
2022-08-24T20:00:06.763Z,25.70
2022-08-24T20:02:35.919Z,25.60
2022-08-24T20:05:02.669Z,25.60
2022-08-24T20:07:29.395Z,25.60
2022-08-24T20:09:58.550Z,25.50
2022-08-24T20:12:25.919Z,25.40
2022-08-24T20:14:52.686Z,25.40
2022-08-24T20:17:21.561Z,25.30
2022-08-24T20:19:57.623Z,25.20
2022-08-24T20:22:29.946Z,25.00
2022-08-24T20:24:58.807Z,24.80
2022-08-24T20:27:26.248Z,24.70
2022-08-24T20:29:53.194Z,24.60
2022-08-24T20:32:22.110Z,24.50
2022-08-24T20:34:51.282Z,24.50
2022-08-24T20:37:25.404Z,24.50
2022-08-24T20:39:55.945Z,24.50
2022-08-24T20:42:24.072Z,24.40
2022-08-24T20:44:50.851Z,24.40
2022-08-24T20:47:20.010Z,24.40
2022-08-24T20:49:49.061Z,24.30
2022-08-24T20:52:18.299Z,24.30
2022-08-24T20:54:47.150Z,24.30
2022-08-24T20:57:18.249Z,24.20
2022-08-24T20:59:45.430Z,24.20
2022-08-24T21:02:12.259Z,24.10
2022-08-24T21:04:41.525Z,24.00
2022-08-24T21:07:10.617Z,24.00
2022-08-24T21:09:37.630Z,23.90
2022-08-24T21:12:04.819Z,23.90
2022-08-24T21:14:31.599Z,23.90
2022-08-24T21:16:58.491Z,23.90
2022-08-24T21:19:25.284Z,23.90
2022-08-24T21:21:54.258Z,24.00
2022-08-24T21:24:25.775Z,24.00
2022-08-24T21:26:53.692Z,24.00
2022-08-24T21:29:20.436Z,24.00
2022-08-24T21:32:16.008Z,24.00
2022-08-24T21:34:45.163Z,24.00
2022-08-24T21:37:15.901Z,23.90
2022-08-24T21:39:44.394Z,23.90
2022-08-24T21:42:11.354Z,23.90
2022-08-24T21:44:38.115Z,23.80
2022-08-24T21:47:05.734Z,23.80
2022-08-24T21:49:33.562Z,23.70
2022-08-24T21:52:03.105Z,23.70
2022-08-24T21:54:29.928Z,23.70
2022-08-24T21:56:56.671Z,23.50
2022-08-24T21:59:23.443Z,23.40
2022-08-24T22:01:50.367Z,23.40
2022-08-24T22:04:19.748Z,23.40
2022-08-24T22:06:46.529Z,23.40
2022-08-24T22:09:19.149Z,23.30
2022-08-24T22:11:45.926Z,23.30
2022-08-24T22:14:16.006Z,23.30
2022-08-24T22:16:43.999Z,23.30
2022-08-24T22:19:11.806Z,23.30
2022-08-24T22:21:41.143Z,23.40
2022-08-24T22:24:10.501Z,23.30
2022-08-24T22:26:37.344Z,23.30
2022-08-24T22:29:06.921Z,23.30
2022-08-24T22:31:37.747Z,23.30
2022-08-24T22:34:09.718Z,23.30
2022-08-24T22:36:39.552Z,23.30
2022-08-24T22:39:07.418Z,23.30
2022-08-24T22:41:36.603Z,23.20
2022-08-24T22:44:21.758Z,23.20
2022-08-24T22:46:56.639Z,23.20
2022-08-24T22:49:26.026Z,23.20
2022-08-24T22:51:52.892Z,23.20
2022-08-24T22:54:22.585Z,23.10
2022-08-24T22:56:53.496Z,23.10
2022-08-24T22:59:22.170Z,23.00
2022-08-24T23:01:50.327Z,23.10
2022-08-24T23:04:21.926Z,23.00
2022-08-24T23:06:49.162Z,23.00
2022-08-24T23:09:15.997Z,23.00
2022-08-24T23:11:42.845Z,23.00
2022-08-24T23:14:10.137Z,22.90
2022-08-24T23:16:37.984Z,22.90
2022-08-24T23:19:24.077Z,22.90
2022-08-24T23:21:53.822Z,22.90
2022-08-24T23:24:20.868Z,22.90
2022-08-24T23:26:47.631Z,22.90
2022-08-24T23:29:15.930Z,22.90
2022-08-24T23:31:46.133Z,22.80
2022-08-24T23:34:18.118Z,22.80
2022-08-24T23:36:47.314Z,22.80
2022-08-24T23:39:14.292Z,22.80
2022-08-24T23:41:42.580Z,22.80
2022-08-24T23:44:20.786Z,22.90
2022-08-24T23:46:50.207Z,22.90
2022-08-24T23:49:17.793Z,22.90
2022-08-24T23:51:44.547Z,22.90
2022-08-24T23:54:13.763Z,22.90
2022-08-24T23:56:42.191Z,23.00
2022-08-24T23:59:12.787Z,23.00
